createdAt,value
2023-02-19T00:00:17.656Z,87.00
2023-02-19T00:00:57.127Z,86.00
2023-02-19T00:01:39.855Z,89.33
2023-02-19T00:02:27.622Z,115.33
2023-02-19T00:03:09.905Z,117.00
2023-02-19T00:03:56.615Z,115.33
2023-02-19T00:04:43.883Z,115.00
2023-02-19T00:05:22.810Z,154.00
2023-02-19T00:06:27.797Z,155.67
2023-02-19T00:07:46.958Z,128.67
2023-02-19T00:09:43.940Z,127.33
2023-02-19T00:10:22.917Z,106.67
2023-02-19T00:11:01.662Z,91.33
2023-02-19T00:11:40.632Z,94.00
2023-02-19T00:12:19.923Z,98.67
2023-02-19T00:12:58.626Z,100.33
2023-02-19T00:13:41.800Z,101.33
2023-02-19T00:15:00.344Z,103.00
2023-02-19T00:15:39.997Z,100.00
2023-02-19T00:18:02.675Z,103.67
2023-02-19T00:18:47.046Z,104.00
2023-02-19T00:19:26.674Z,107.00
2023-02-19T00:20:07.491Z,108.33
2023-02-19T00:20:47.495Z,110.00
2023-02-19T00:21:27.737Z,114.33
2023-02-19T00:22:07.146Z,120.00
2023-02-19T00:22:46.433Z,104.00
2023-02-19T00:23:27.106Z,99.33
2023-02-19T00:24:08.170Z,101.33
2023-02-19T00:24:49.216Z,109.33
2023-02-19T00:25:53.218Z,171.67
2023-02-19T00:26:32.630Z,136.00
2023-02-19T00:27:12.999Z,131.00
2023-02-19T00:28:32.554Z,123.67
2023-02-19T00:29:20.408Z,141.33
2023-02-19T00:29:59.963Z,127.00
2023-02-19T00:30:38.931Z,105.67
2023-02-19T00:31:22.631Z,97.67
2023-02-19T00:32:01.558Z,98.33
2023-02-19T00:34:28.682Z,97.33
2023-02-19T00:35:08.064Z,99.67
2023-02-19T00:35:47.141Z,101.00
2023-02-19T00:36:36.884Z,145.67
2023-02-19T00:37:17.222Z,138.33
2023-02-19T00:37:56.801Z,128.67
2023-02-19T00:39:13.616Z,135.33
2023-02-19T00:39:54.617Z,130.33
2023-02-19T00:40:33.961Z,139.33
2023-02-19T00:41:20.676Z,139.33
2023-02-19T00:42:00.967Z,164.33
2023-02-19T00:42:39.920Z,145.33
2023-02-19T00:43:22.102Z,135.67
2023-02-19T00:44:10.852Z,113.33
2023-02-19T00:44:49.992Z,108.00
2023-02-19T00:45:32.018Z,108.00
2023-02-19T00:46:10.965Z,109.67
2023-02-19T00:46:53.035Z,109.67
2023-02-19T00:47:34.171Z,110.33
2023-02-19T00:48:14.283Z,111.00
2023-02-19T00:49:30.929Z,111.00
2023-02-19T00:50:18.521Z,114.00
2023-02-19T00:50:57.921Z,122.00
2023-02-19T00:51:39.879Z,119.67
2023-02-19T00:52:22.122Z,101.67
2023-02-19T00:53:01.602Z,100.33
2023-02-19T00:53:40.694Z,102.33
2023-02-19T00:54:19.655Z,104.67
2023-02-19T00:55:06.867Z,111.00
2023-02-19T00:55:45.747Z,120.00
2023-02-19T00:56:25.103Z,130.00
2023-02-19T00:57:07.574Z,124.00
2023-02-19T00:57:56.092Z,131.33
2023-02-19T00:58:35.716Z,128.33
2023-02-19T01:00:04.488Z,119.00
2023-02-19T01:00:43.940Z,92.33
2023-02-19T01:02:09.800Z,82.33
2023-02-19T01:02:48.911Z,77.00
2023-02-19T01:04:08.534Z,76.33
2023-02-19T01:04:50.466Z,74.33
2023-02-19T01:06:20.838Z,86.33
2023-02-19T01:06:59.981Z,84.00
2023-02-19T01:07:41.818Z,84.33
2023-02-19T01:08:21.386Z,90.67
2023-02-19T01:09:01.283Z,112.67
2023-02-19T01:09:41.089Z,123.67
2023-02-19T01:10:20.701Z,149.33
2023-02-19T01:11:40.979Z,119.67
2023-02-19T01:12:57.920Z,90.00
2023-02-19T01:14:20.810Z,81.33
2023-02-19T01:15:00.570Z,86.00
2023-02-19T01:15:40.817Z,89.33
2023-02-19T01:17:10.659Z,119.33
2023-02-19T01:18:14.817Z,113.33
2023-02-19T01:21:19.469Z,147.00
2023-02-19T01:22:39.975Z,154.67
2023-02-19T01:24:00.116Z,134.67
2023-02-19T01:25:03.432Z,121.00
2023-02-19T01:25:42.504Z,113.33
2023-02-19T01:26:25.804Z,113.33
2023-02-19T01:27:59.017Z,119.67
2023-02-19T01:28:39.034Z,121.00
2023-02-19T01:29:17.761Z,121.00
2023-02-19T01:30:00.118Z,121.00
2023-02-19T01:30:38.757Z,133.33
2023-02-19T01:31:31.161Z,125.33
2023-02-19T01:32:18.666Z,125.67
2023-02-19T01:32:57.788Z,139.33
2023-02-19T01:33:36.988Z,142.33
2023-02-19T01:34:40.266Z,140.00
2023-02-19T01:37:17.687Z,1.33
2023-02-19T01:37:58.175Z,70.00
2023-02-19T01:38:41.333Z,81.33
2023-02-19T01:39:20.893Z,91.33
2023-02-19T01:39:59.912Z,94.33
2023-02-19T01:40:38.745Z,96.33
2023-02-19T01:41:24.416Z,103.67
2023-02-19T01:42:03.269Z,103.67
2023-02-19T01:42:55.703Z,96.67
2023-02-19T01:44:08.216Z,95.33
2023-02-19T01:45:15.956Z,100.00
2023-02-19T01:45:55.318Z,106.00
2023-02-19T01:46:39.753Z,104.33
2023-02-19T01:47:20.454Z,93.67
2023-02-19T01:48:50.409Z,101.00
2023-02-19T01:49:29.552Z,96.33
2023-02-19T01:50:09.515Z,98.33
2023-02-19T01:51:21.623Z,105.67
2023-02-19T01:52:17.847Z,114.67
2023-02-19T01:52:57.380Z,100.00
2023-02-19T01:53:46.194Z,99.33
2023-02-19T01:54:29.798Z,99.33
2023-02-19T01:55:47.418Z,99.33
2023-02-19T01:56:30.210Z,98.00
2023-02-19T01:57:55.646Z,104.33
2023-02-19T01:58:35.395Z,102.00
2023-02-19T01:59:14.404Z,102.00
2023-02-19T02:00:03.801Z,101.67
2023-02-19T02:00:43.842Z,102.00
2023-02-19T02:01:25.904Z,103.33
2023-02-19T02:02:14.683Z,102.00
2023-02-19T02:02:58.060Z,103.67
2023-02-19T02:03:48.960Z,102.00
2023-02-19T02:04:31.924Z,102.00
2023-02-19T02:06:13.456Z,101.00
2023-02-19T02:08:40.385Z,102.33
2023-02-19T02:09:42.814Z,120.67
2023-02-19T02:11:13.430Z,102.67
2023-02-19T02:11:56.290Z,101.00
2023-02-19T02:12:40.048Z,100.00
2023-02-19T02:13:21.539Z,101.33
2023-02-19T02:14:01.001Z,101.67
2023-02-19T02:14:42.560Z,101.00
2023-02-19T02:15:29.817Z,101.67
2023-02-19T02:18:31.729Z,104.00
2023-02-19T02:19:55.843Z,103.67
2023-02-19T02:20:59.538Z,104.00
2023-02-19T02:23:11.270Z,104.00
2023-02-19T02:25:08.020Z,102.00
2023-02-19T02:25:53.753Z,99.67
2023-02-19T02:27:26.612Z,95.33
2023-02-19T02:29:08.752Z,94.00
2023-02-19T02:30:09.581Z,102.67
2023-02-19T02:30:51.495Z,105.00
2023-02-19T02:31:38.145Z,104.33
2023-02-19T02:32:18.893Z,112.67
2023-02-19T02:33:13.889Z,109.67
2023-02-19T02:33:54.431Z,112.00
2023-02-19T02:35:19.408Z,109.33
2023-02-19T02:36:42.394Z,108.33
2023-02-19T02:37:54.687Z,109.00
2023-02-19T02:38:41.822Z,103.00
2023-02-19T02:39:20.548Z,105.33
2023-02-19T02:40:03.965Z,105.00
2023-02-19T02:40:46.528Z,86.33
2023-02-19T02:41:30.205Z,82.67
2023-02-19T02:42:27.553Z,86.00
2023-02-19T02:43:07.942Z,82.00
2023-02-19T02:43:54.888Z,84.67
2023-02-19T02:44:35.588Z,86.67
2023-02-19T02:45:51.238Z,87.00
2023-02-19T02:46:30.233Z,86.33
2023-02-19T02:47:06.408Z,79.00
2023-02-19T02:47:50.694Z,73.00
2023-02-19T02:48:45.714Z,73.33
2023-02-19T02:49:24.455Z,77.67
2023-02-19T02:50:41.523Z,90.67
2023-02-19T02:51:52.898Z,89.33
2023-02-19T02:52:50.919Z,85.00
2023-02-19T02:54:17.369Z,85.00
2023-02-19T02:54:55.447Z,86.00
2023-02-19T02:55:41.727Z,87.33
2023-02-19T02:56:24.824Z,114.00
2023-02-19T02:57:09.424Z,110.67
2023-02-19T02:57:52.386Z,114.00
2023-02-19T02:58:34.206Z,106.00
2023-02-19T02:59:21.823Z,84.67
2023-02-19T03:00:00.882Z,80.00
2023-02-19T03:01:06.439Z,81.67
2023-02-19T03:02:12.754Z,81.67
2023-02-19T03:02:53.934Z,100.33
2023-02-19T03:03:47.777Z,101.33
2023-02-19T03:05:10.435Z,132.33
2023-02-19T03:05:52.682Z,111.33
2023-02-19T03:06:36.463Z,110.00
2023-02-19T03:07:15.905Z,109.33
2023-02-19T03:08:15.407Z,113.00
2023-02-19T03:09:40.641Z,122.67
2023-02-19T03:10:31.921Z,117.00
2023-02-19T03:11:31.740Z,124.33
2023-02-19T03:12:37.708Z,155.67
2023-02-19T03:13:47.353Z,128.67
2023-02-19T03:14:59.759Z,111.00
2023-02-19T03:16:27.535Z,109.33
2023-02-19T03:17:40.735Z,98.00
2023-02-19T03:19:20.411Z,80.33
2023-02-19T03:20:06.165Z,75.00
2023-02-19T03:22:06.398Z,73.67
2023-02-19T03:22:47.221Z,72.00
2023-02-19T03:24:27.405Z,70.00
2023-02-19T03:26:03.507Z,77.67
2023-02-19T03:26:53.958Z,100.67
2023-02-19T03:27:35.659Z,97.00
2023-02-19T03:28:14.846Z,83.33
2023-02-19T03:29:15.382Z,88.00
2023-02-19T03:30:01.937Z,96.00
2023-02-19T03:31:18.599Z,88.33
2023-02-19T03:32:09.062Z,86.33
2023-02-19T03:32:48.611Z,87.00
2023-02-19T03:33:26.761Z,86.33
2023-02-19T03:34:13.373Z,87.00
2023-02-19T03:35:02.501Z,85.67
2023-02-19T03:36:19.560Z,84.33
2023-02-19T03:37:09.891Z,84.67
2023-02-19T03:39:30.787Z,71.67
2023-02-19T03:41:06.513Z,73.00
2023-02-19T03:43:28.585Z,74.00
2023-02-19T03:44:03.401Z,72.00
2023-02-19T03:45:03.700Z,72.67
2023-02-19T03:45:45.649Z,73.33
2023-02-19T03:46:52.221Z,76.00
2023-02-19T03:48:13.738Z,74.33
2023-02-19T03:49:53.993Z,74.00
2023-02-19T03:50:41.558Z,75.00
2023-02-19T03:51:20.493Z,75.67
2023-02-19T03:52:22.694Z,76.00
2023-02-19T03:53:01.670Z,77.67
2023-02-19T03:54:20.806Z,120.00
2023-02-19T03:56:02.682Z,93.33
2023-02-19T03:57:00.100Z,94.67
2023-02-19T03:58:03.971Z,94.67
2023-02-19T03:58:54.115Z,93.00
2023-02-19T04:00:10.263Z,92.00
2023-02-19T04:01:05.024Z,120.00
2023-02-19T04:01:56.950Z,113.67
2023-02-19T04:02:39.549Z,116.00
2023-02-19T04:03:23.776Z,109.33
2023-02-19T04:04:20.071Z,107.33
2023-02-19T04:05:14.023Z,102.00
2023-02-19T04:06:12.180Z,99.00
2023-02-19T04:06:57.589Z,82.00
2023-02-19T04:07:36.850Z,73.00
2023-02-19T04:08:19.386Z,68.67
2023-02-19T04:08:58.602Z,75.00
2023-02-19T04:09:49.974Z,76.67
2023-02-19T04:10:33.028Z,78.33
2023-02-19T04:11:18.607Z,82.00
2023-02-19T04:11:58.905Z,87.33
2023-02-19T04:12:45.001Z,89.00
2023-02-19T04:13:32.019Z,80.67
2023-02-19T04:14:30.540Z,78.67
2023-02-19T04:15:35.321Z,78.67
2023-02-19T04:17:05.583Z,77.33
2023-02-19T04:18:00.806Z,89.00
2023-02-19T04:20:01.598Z,95.33
2023-02-19T04:20:44.826Z,109.00
2023-02-19T04:22:02.725Z,115.33
2023-02-19T04:22:43.330Z,120.00
2023-02-19T04:24:19.886Z,125.67
2023-02-19T04:25:00.975Z,115.67
2023-02-19T04:26:05.312Z,113.67
2023-02-19T04:26:46.192Z,113.67
2023-02-19T04:27:51.260Z,121.67
2023-02-19T04:28:30.431Z,130.67
2023-02-19T04:29:09.960Z,121.67
2023-02-19T04:30:28.528Z,89.00
2023-02-19T04:32:27.976Z,79.67
2023-02-19T04:33:08.480Z,75.33
2023-02-19T04:33:47.924Z,66.67
2023-02-19T04:34:29.890Z,71.33
2023-02-19T04:37:25.091Z,68.33
2023-02-19T04:38:44.506Z,74.00
2023-02-19T04:39:23.949Z,74.33
2023-02-19T04:40:03.567Z,75.67
2023-02-19T04:40:42.852Z,76.33
2023-02-19T04:41:22.049Z,82.00
2023-02-19T04:42:04.644Z,96.67
2023-02-19T04:42:44.814Z,97.67
2023-02-19T04:43:24.075Z,98.67
2023-02-19T04:44:06.028Z,101.33
2023-02-19T04:44:46.021Z,100.67
2023-02-19T04:45:27.995Z,108.67
2023-02-19T04:46:07.046Z,114.67
2023-02-19T04:46:48.690Z,117.00
2023-02-19T04:47:28.446Z,112.00
2023-02-19T04:48:08.359Z,109.00
2023-02-19T04:48:47.901Z,110.00
2023-02-19T04:51:38.245Z,108.67
2023-02-19T04:52:17.992Z,115.33
2023-02-19T04:52:57.895Z,114.33
2023-02-19T04:53:40.975Z,114.67
2023-02-19T04:54:57.843Z,115.00
2023-02-19T04:55:39.111Z,114.00
2023-02-19T04:56:21.147Z,113.33
2023-02-19T04:57:56.877Z,111.33
2023-02-19T04:58:37.536Z,106.00
2023-02-19T05:00:51.998Z,111.67
2023-02-19T05:01:33.920Z,115.67
2023-02-19T05:02:46.589Z,113.33
2023-02-19T05:03:26.043Z,107.00
2023-02-19T05:04:05.610Z,95.00
2023-02-19T05:04:52.721Z,79.67
2023-02-19T05:05:32.674Z,85.67
2023-02-19T05:06:14.977Z,85.00
2023-02-19T05:07:53.608Z,80.00
2023-02-19T05:08:33.644Z,77.33
2023-02-19T05:10:05.207Z,77.67
2023-02-19T05:10:49.675Z,70.67
2023-02-19T05:11:27.639Z,75.33
2023-02-19T05:12:06.530Z,77.00
2023-02-19T05:12:46.452Z,86.33
2023-02-19T05:14:07.183Z,115.67
2023-02-19T05:15:25.904Z,108.67
2023-02-19T05:17:08.642Z,108.33
2023-02-19T05:18:35.592Z,103.33
2023-02-19T05:19:16.070Z,102.00
2023-02-19T05:19:56.074Z,97.67
2023-02-19T05:20:36.815Z,86.67
2023-02-19T05:21:15.951Z,83.33
2023-02-19T05:24:16.747Z,50.33
2023-02-19T05:25:38.741Z,90.67
2023-02-19T05:26:21.754Z,94.67
2023-02-19T05:27:01.963Z,89.00
2023-02-19T05:27:41.618Z,95.33
2023-02-19T05:28:28.771Z,98.67
2023-02-19T05:29:09.038Z,101.67
2023-02-19T05:30:26.193Z,103.33
2023-02-19T05:31:09.725Z,104.00
2023-02-19T05:31:49.526Z,107.67
2023-02-19T05:32:38.587Z,102.67
2023-02-19T05:33:17.228Z,103.33
2023-02-19T05:34:04.321Z,99.00
2023-02-19T05:34:44.542Z,94.67
2023-02-19T05:35:23.621Z,99.00
2023-02-19T05:36:07.118Z,100.00
2023-02-19T05:36:47.573Z,100.67
2023-02-19T05:37:35.466Z,102.67
2023-02-19T05:38:15.660Z,101.00
2023-02-19T05:38:58.222Z,98.33
2023-02-19T05:39:37.533Z,100.67
2023-02-19T05:41:05.077Z,99.67
2023-02-19T05:41:47.172Z,102.67
2023-02-19T05:42:28.069Z,100.67
2023-02-19T05:44:39.471Z,103.00
2023-02-19T05:46:20.231Z,102.67
2023-02-19T05:46:59.534Z,103.00
2023-02-19T05:47:46.442Z,103.00
2023-02-19T05:48:35.559Z,101.00
2023-02-19T05:49:17.624Z,101.00
2023-02-19T05:49:59.498Z,100.33
2023-02-19T05:50:41.623Z,100.33
2023-02-19T05:51:24.150Z,100.33
2023-02-19T05:52:17.358Z,103.00
2023-02-19T05:54:29.654Z,104.33
2023-02-19T05:55:09.088Z,103.00
2023-02-19T05:55:48.657Z,104.00
2023-02-19T05:56:28.304Z,103.67
2023-02-19T05:57:10.525Z,103.00
2023-02-19T05:59:15.953Z,102.67
2023-02-19T06:00:34.672Z,103.67
2023-02-19T06:01:14.164Z,104.33
2023-02-19T06:02:32.591Z,104.00
2023-02-19T06:03:36.110Z,103.00
2023-02-19T06:05:19.989Z,102.00
2023-02-19T06:08:52.830Z,110.00
2023-02-19T06:09:33.426Z,108.67
2023-02-19T06:10:13.818Z,105.00
2023-02-19T06:10:53.703Z,102.00
2023-02-19T06:11:32.966Z,101.67
2023-02-19T06:12:16.859Z,101.33
2023-02-19T06:14:50.720Z,103.00
2023-02-19T06:17:17.264Z,86.67
2023-02-19T06:17:57.071Z,82.00
2023-02-19T06:19:13.255Z,79.00
2023-02-19T06:20:02.168Z,77.33
2023-02-19T06:21:22.617Z,76.00
2023-02-19T06:22:02.101Z,78.00
2023-02-19T06:22:41.241Z,72.67
2023-02-19T06:23:20.508Z,72.33
2023-02-19T06:24:24.170Z,79.33
2023-02-19T06:25:04.985Z,109.00
2023-02-19T06:28:10.761Z,103.00
2023-02-19T06:30:08.294Z,104.67
2023-02-19T06:30:51.250Z,105.00
2023-02-19T06:31:30.867Z,106.00
2023-02-19T06:32:49.104Z,119.67
2023-02-19T06:33:30.140Z,116.67
2023-02-19T06:34:47.716Z,113.00
2023-02-19T06:35:27.209Z,113.33
2023-02-19T06:36:08.738Z,116.00
2023-02-19T06:37:53.343Z,114.33
2023-02-19T06:39:11.889Z,114.67
2023-02-19T06:40:28.697Z,114.67
2023-02-19T06:41:08.336Z,127.33
2023-02-19T06:41:58.439Z,143.33
2023-02-19T06:43:02.664Z,114.00
2023-02-19T06:43:41.027Z,100.00
2023-02-19T06:44:52.263Z,101.00
2023-02-19T06:45:31.573Z,101.33
2023-02-19T06:46:10.315Z,100.00
2023-02-19T06:46:49.789Z,103.33
2023-02-19T06:47:35.404Z,103.67
2023-02-19T06:48:15.524Z,102.67
2023-02-19T06:48:57.545Z,103.33
2023-02-19T06:49:39.633Z,113.67
2023-02-19T06:50:43.260Z,138.00
2023-02-19T06:53:27.732Z,125.33
2023-02-19T06:54:06.357Z,143.33
2023-02-19T06:54:46.030Z,142.00
2023-02-19T06:55:28.646Z,133.33
2023-02-19T06:56:30.639Z,132.00
2023-02-19T06:57:12.646Z,142.33
2023-02-19T06:57:52.338Z,139.67
2023-02-19T06:58:34.044Z,138.00
2023-02-19T06:59:16.997Z,141.33
2023-02-19T06:59:56.635Z,155.00
2023-02-19T07:00:38.317Z,155.33
2023-02-19T07:01:19.193Z,155.00
2023-02-19T07:02:00.054Z,164.67
2023-02-19T07:02:41.120Z,156.00
2023-02-19T07:03:44.712Z,155.00
2023-02-19T07:04:23.554Z,150.67
2023-02-19T07:05:02.478Z,127.33
2023-02-19T07:05:43.958Z,107.00
2023-02-19T07:06:25.532Z,114.33
2023-02-19T07:07:51.613Z,98.33
2023-02-19T07:08:40.405Z,106.00
2023-02-19T07:11:19.806Z,111.67
2023-02-19T07:12:23.059Z,112.00
2023-02-19T07:13:03.098Z,112.00
2023-02-19T07:13:42.631Z,113.33
2023-02-19T07:14:29.893Z,114.00
2023-02-19T07:15:09.903Z,123.33
2023-02-19T07:15:52.000Z,142.67
2023-02-19T07:16:56.370Z,145.33
2023-02-19T07:18:16.632Z,136.67
2023-02-19T07:18:55.257Z,132.67
2023-02-19T07:19:44.382Z,140.00
2023-02-19T07:20:57.120Z,180.00
2023-02-19T07:21:37.968Z,186.00
2023-02-19T07:22:57.634Z,154.33
2023-02-19T07:23:36.155Z,152.67
2023-02-19T07:24:15.934Z,151.67
2023-02-19T07:25:19.595Z,151.00
2023-02-19T07:25:59.651Z,149.33
2023-02-19T07:26:46.410Z,134.00
2023-02-19T07:27:28.596Z,131.67
2023-02-19T07:28:08.036Z,127.00
2023-02-19T07:28:55.531Z,108.67
2023-02-19T07:29:36.647Z,95.00
2023-02-19T07:30:15.660Z,99.67
2023-02-19T07:31:01.032Z,99.67
2023-02-19T07:31:40.659Z,111.33
2023-02-19T07:32:45.574Z,119.00
2023-02-19T07:34:27.967Z,150.00
2023-02-19T07:36:06.559Z,172.00
2023-02-19T07:37:48.265Z,154.00
2023-02-19T07:39:09.141Z,149.33
2023-02-19T07:39:48.197Z,150.33
2023-02-19T07:40:28.737Z,162.67
2023-02-19T07:41:11.565Z,179.67
2023-02-19T07:41:52.601Z,187.33
2023-02-19T07:42:32.246Z,170.33
2023-02-19T07:43:11.601Z,161.33
2023-02-19T07:43:51.646Z,155.33
2023-02-19T07:44:55.203Z,157.67
2023-02-19T07:45:38.186Z,170.33
2023-02-19T07:47:20.129Z,191.00
2023-02-19T07:48:24.656Z,139.33
2023-02-19T07:49:35.645Z,130.33
2023-02-19T07:50:17.627Z,133.67
2023-02-19T07:50:56.346Z,178.00
2023-02-19T07:51:39.244Z,169.33
2023-02-19T07:52:31.502Z,163.33
2023-02-19T07:53:11.619Z,160.33
2023-02-19T07:54:15.395Z,161.33
2023-02-19T07:54:54.371Z,196.33
2023-02-19T07:55:35.442Z,183.67
2023-02-19T07:56:14.987Z,161.00
2023-02-19T07:57:31.661Z,148.67
2023-02-19T07:59:31.615Z,136.33
2023-02-19T08:00:52.185Z,113.33
2023-02-19T08:02:15.192Z,120.33
2023-02-19T08:04:37.046Z,129.00
2023-02-19T08:05:57.835Z,113.00
2023-02-19T08:06:41.591Z,113.67
2023-02-19T08:08:01.727Z,123.00
2023-02-19T08:08:41.755Z,123.67
2023-02-19T08:09:21.561Z,124.33
2023-02-19T08:10:21.428Z,127.33
2023-02-19T08:11:38.292Z,116.67
2023-02-19T08:12:36.426Z,114.00
2023-02-19T08:14:00.496Z,110.67
2023-02-19T08:14:48.724Z,112.67
2023-02-19T08:15:33.364Z,115.00
2023-02-19T08:16:36.711Z,115.67
2023-02-19T08:17:30.319Z,117.00
2023-02-19T08:18:12.348Z,135.33
2023-02-19T08:18:52.889Z,170.67
2023-02-19T08:19:32.751Z,164.33
2023-02-19T08:20:11.606Z,169.33
2023-02-19T08:20:56.085Z,169.67
2023-02-19T08:21:35.622Z,156.00
2023-02-19T08:22:16.443Z,133.00
2023-02-19T08:22:55.627Z,106.67
2023-02-19T08:24:34.019Z,87.67
2023-02-19T08:25:14.591Z,103.33
2023-02-19T08:26:00.724Z,111.33
2023-02-19T08:27:57.638Z,105.67
2023-02-19T08:28:36.408Z,96.33
2023-02-19T08:29:30.546Z,94.33
2023-02-19T08:30:34.454Z,99.33
2023-02-19T08:32:32.070Z,130.00
2023-02-19T08:33:11.168Z,132.33
2023-02-19T08:33:53.681Z,142.33
2023-02-19T08:34:32.281Z,129.33
2023-02-19T08:35:19.457Z,101.33
2023-02-19T08:36:04.783Z,93.00
2023-02-19T08:36:46.565Z,101.67
2023-02-19T08:37:25.574Z,107.33
2023-02-19T08:38:07.486Z,168.33
2023-02-19T08:38:49.648Z,176.33
2023-02-19T08:39:32.937Z,183.33
2023-02-19T08:40:13.483Z,172.00
2023-02-19T08:40:52.665Z,153.33
2023-02-19T08:41:41.594Z,149.00
2023-02-19T08:42:24.026Z,147.00
2023-02-19T08:43:06.694Z,132.00
2023-02-19T08:44:28.167Z,125.00
2023-02-19T08:45:08.070Z,125.33
2023-02-19T08:45:48.913Z,142.00
2023-02-19T08:47:00.797Z,163.33
2023-02-19T08:48:19.576Z,161.67
2023-02-19T08:49:39.899Z,155.67
2023-02-19T08:51:07.419Z,135.00
2023-02-19T08:51:46.641Z,136.00
2023-02-19T08:53:06.150Z,145.33
2023-02-19T08:53:48.734Z,187.33
2023-02-19T08:54:52.045Z,183.33
2023-02-19T08:55:31.812Z,175.00
2023-02-19T08:56:16.557Z,168.33
2023-02-19T08:57:35.821Z,170.67
2023-02-19T08:58:39.411Z,172.33
2023-02-19T08:59:59.688Z,124.33
2023-02-19T09:01:03.711Z,122.33
2023-02-19T09:02:23.909Z,134.33
2023-02-19T09:03:03.721Z,125.67
2023-02-19T09:03:44.225Z,122.33
2023-02-19T09:05:45.333Z,167.33
2023-02-19T09:06:27.653Z,163.67
2023-02-19T09:07:46.085Z,205.33
2023-02-19T09:09:04.118Z,201.33
2023-02-19T09:11:03.635Z,211.67
2023-02-19T09:11:42.529Z,213.33
2023-02-19T09:12:33.744Z,198.00
2023-02-19T09:15:15.638Z,130.67
2023-02-19T09:16:40.651Z,139.67
2023-02-19T09:17:19.615Z,145.67
2023-02-19T09:18:23.888Z,147.67
2023-02-19T09:19:41.885Z,196.67
2023-02-19T09:21:25.502Z,185.00
2023-02-19T09:22:04.235Z,182.67
2023-02-19T09:23:07.878Z,179.33
2023-02-19T09:23:50.324Z,252.67
2023-02-19T09:24:29.770Z,228.00
2023-02-19T09:25:33.386Z,198.33
2023-02-19T09:28:25.625Z,199.00
2023-02-19T09:29:29.196Z,186.67
2023-02-19T09:31:06.594Z,218.67
2023-02-19T09:34:07.842Z,174.33
2023-02-19T09:35:12.142Z,164.67
2023-02-19T09:35:55.750Z,165.33
2023-02-19T09:36:35.907Z,171.33
2023-02-19T09:37:14.876Z,173.00
2023-02-19T09:38:02.099Z,174.67
2023-02-19T09:38:42.250Z,216.33
2023-02-19T09:39:46.336Z,234.67
2023-02-19T09:41:32.053Z,216.33
2023-02-19T09:42:52.076Z,244.67
2023-02-19T09:43:58.665Z,249.00
2023-02-19T09:45:25.098Z,225.00
2023-02-19T09:47:47.267Z,216.00
2023-02-19T09:49:38.838Z,188.67
2023-02-19T09:51:11.259Z,163.67
2023-02-19T09:52:54.420Z,178.33
2023-02-19T09:53:43.649Z,182.67
2023-02-19T09:55:36.914Z,212.33
2023-02-19T09:56:17.294Z,212.00
2023-02-19T09:58:02.577Z,209.00
2023-02-19T09:58:44.366Z,209.33
2023-02-19T09:59:40.887Z,207.00
2023-02-19T10:00:21.440Z,191.00
2023-02-19T10:01:26.960Z,196.67
2023-02-19T10:02:30.969Z,222.00
2023-02-19T10:03:14.540Z,222.00
2023-02-19T10:04:10.185Z,216.00
2023-02-19T10:04:52.606Z,195.33
2023-02-19T10:07:15.368Z,170.33
2023-02-19T10:07:58.731Z,180.00
2023-02-19T10:08:48.620Z,182.00
2023-02-19T10:09:31.390Z,189.67
2023-02-19T10:10:14.340Z,188.67
2023-02-19T10:10:55.065Z,172.67
2023-02-19T10:11:34.808Z,174.67
2023-02-19T10:12:24.953Z,154.33
2023-02-19T10:13:28.197Z,152.67
2023-02-19T10:14:19.503Z,166.00
2023-02-19T10:15:23.169Z,180.67
2023-02-19T10:17:27.507Z,178.33
2023-02-19T10:18:49.821Z,183.67
2023-02-19T10:20:15.789Z,149.67
2023-02-19T10:20:57.643Z,132.00
2023-02-19T10:21:41.382Z,126.33
2023-02-19T10:22:21.629Z,153.00
2023-02-19T10:23:19.500Z,131.33
2023-02-19T10:23:59.207Z,101.00
2023-02-19T10:24:51.890Z,102.67
2023-02-19T10:25:43.356Z,116.67
2023-02-19T10:26:27.696Z,122.00
2023-02-19T10:27:18.264Z,125.33
2023-02-19T10:28:07.306Z,131.33
2023-02-19T10:28:49.710Z,135.67
2023-02-19T10:30:16.797Z,135.00
2023-02-19T10:31:01.413Z,134.67
2023-02-19T10:32:10.438Z,123.33
2023-02-19T10:33:01.285Z,122.00
2023-02-19T10:33:55.946Z,157.00
2023-02-19T10:34:37.081Z,165.33
2023-02-19T10:35:30.242Z,190.67
2023-02-19T10:36:37.618Z,163.00
2023-02-19T10:38:59.510Z,179.33
2023-02-19T10:39:49.968Z,168.33
2023-02-19T10:40:32.378Z,151.67
2023-02-19T10:41:30.880Z,146.00
2023-02-19T10:42:50.815Z,164.00
2023-02-19T10:43:37.155Z,156.33
2023-02-19T10:45:06.284Z,170.67
2023-02-19T10:45:50.454Z,164.67
2023-02-19T10:47:33.062Z,176.00
2023-02-19T10:48:57.423Z,184.00
2023-02-19T10:49:44.190Z,203.33
2023-02-19T10:50:56.091Z,185.67
2023-02-19T10:52:42.559Z,137.33
2023-02-19T10:54:41.349Z,169.33
2023-02-19T10:55:40.847Z,243.00
2023-02-19T10:56:21.340Z,188.00
2023-02-19T10:57:00.376Z,197.00
2023-02-19T10:57:40.587Z,196.33
2023-02-19T11:01:42.307Z,183.00
2023-02-19T11:03:24.104Z,179.67
2023-02-19T11:04:18.277Z,182.33
2023-02-19T11:05:16.668Z,208.33
2023-02-19T11:06:08.397Z,198.33
2023-02-19T11:06:49.033Z,191.00
2023-02-19T11:07:56.982Z,184.33
2023-02-19T11:09:01.484Z,174.33
2023-02-19T11:09:53.836Z,187.67
2023-02-19T11:10:42.806Z,194.00
2023-02-19T11:11:50.837Z,165.33
2023-02-19T11:13:38.005Z,144.00
2023-02-19T11:15:19.917Z,179.00
2023-02-19T11:16:46.763Z,187.67
2023-02-19T11:17:27.300Z,158.00
2023-02-19T11:18:32.996Z,178.33
2023-02-19T11:20:08.470Z,182.00
2023-02-19T11:20:54.687Z,171.00
2023-02-19T11:21:33.268Z,169.33
2023-02-19T11:22:19.394Z,168.00
2023-02-19T11:22:52.501Z,164.67
2023-02-19T11:23:31.550Z,159.00
2023-02-19T11:24:06.606Z,143.67
2023-02-19T11:24:40.643Z,143.33
2023-02-19T11:25:15.338Z,137.33
2023-02-19T11:25:50.232Z,143.00
2023-02-19T11:26:26.972Z,142.33
2023-02-19T11:29:24.753Z,170.00
2023-02-19T11:30:14.378Z,164.33
2023-02-19T11:31:47.316Z,163.67
2023-02-19T11:32:31.010Z,190.67
2023-02-19T11:33:22.108Z,245.67
2023-02-19T11:34:10.224Z,188.67
2023-02-19T11:34:51.525Z,206.00
2023-02-19T11:35:31.296Z,201.67
2023-02-19T11:36:27.671Z,170.67
2023-02-19T11:37:17.707Z,112.00
2023-02-19T11:38:22.018Z,111.33
2023-02-19T11:40:48.528Z,89.00
2023-02-19T11:42:18.317Z,95.67
2023-02-19T11:43:15.204Z,105.00
2023-02-19T11:44:25.858Z,100.00
2023-02-19T11:45:14.142Z,105.00
2023-02-19T11:46:00.679Z,109.67
2023-02-19T11:46:56.999Z,102.33
2023-02-19T11:48:05.801Z,155.33
2023-02-19T11:48:46.707Z,127.67
2023-02-19T11:49:50.343Z,94.67
2023-02-19T11:51:09.597Z,90.33
2023-02-19T11:52:00.321Z,88.67
2023-02-19T11:52:53.770Z,99.00
2023-02-19T11:53:49.661Z,122.67
2023-02-19T11:56:36.361Z,133.00
2023-02-19T11:58:09.370Z,120.33
2023-02-19T11:58:48.905Z,121.67
2023-02-19T11:59:33.778Z,122.00
2023-02-19T12:00:25.011Z,141.33
2023-02-19T12:01:54.196Z,135.00
2023-02-19T12:02:34.297Z,135.33
2023-02-19T12:03:38.655Z,133.33
2023-02-19T12:06:04.448Z,118.33
2023-02-19T12:08:41.362Z,169.00
2023-02-19T12:10:10.464Z,154.00
2023-02-19T12:11:03.753Z,145.33
2023-02-19T12:12:02.338Z,116.33
2023-02-19T12:13:06.583Z,126.67
2023-02-19T12:15:26.362Z,128.00
2023-02-19T12:16:30.816Z,110.00
2023-02-19T12:18:25.617Z,105.00
2023-02-19T12:19:05.445Z,99.00
2023-02-19T12:20:31.402Z,112.67
2023-02-19T12:23:01.740Z,108.00
2023-02-19T12:23:43.424Z,102.67
2023-02-19T12:24:35.392Z,95.67
2023-02-19T12:25:29.446Z,102.67
2023-02-19T12:26:28.600Z,110.00
2023-02-19T12:27:20.543Z,135.67
2023-02-19T12:28:20.921Z,135.67
2023-02-19T12:29:27.297Z,149.33
2023-02-19T12:30:31.972Z,186.33
2023-02-19T12:32:40.123Z,146.33
2023-02-19T12:33:44.190Z,185.00
2023-02-19T12:36:20.167Z,161.00
2023-02-19T12:37:23.827Z,158.67
2023-02-19T12:38:36.362Z,135.67
2023-02-19T12:39:30.344Z,191.67
2023-02-19T12:40:23.183Z,169.00
2023-02-19T12:41:20.872Z,165.67